Time;durP1;ratioP1;P1;durP2;ratioP2;P2;SDS_P1;SDS_P2;PMS_P1;PMS_P2;Temp;Humidity;BMP_temperature;BMP_pressure;BME280_temperature;BME280_humidity;BME280_pressure;Samples;Min_cycle;Max_cycle;Signal;HPM_P1;HPM_P2
2021/06/02 00:02:16;;;;;;;7.45;1.45;;;18.10;63.30;;;;;;4968298;28;20027;-70
2021/06/02 00:04:47;;;;;;;2.70;1.30;;;18.10;63.70;;;;;;4967879;28;20046;-70
2021/06/02 00:07:24;;;;;;;4.55;1.50;;;18.10;63.30;;;;;;4968025;28;20156;-69
2021/06/02 00:09:51;;;;;;;8.88;1.40;;;18.00;64.40;;;;;;4967173;28;20545;-69
2021/06/02 00:12:17;;;;;;;7.32;1.27;;;18.00;64.80;;;;;;4966558;28;20450;-70
2021/06/02 00:14:42;;;;;;;4.47;1.40;;;17.90;64.70;;;;;;4982489;28;20122;-70
2021/06/02 00:17:09;;;;;;;2.13;1.23;;;17.90;65.00;;;;;;4967725;28;20027;-69
2021/06/02 00:19:35;;;;;;;5.72;1.27;;;17.80;65.90;;;;;;4967596;28;20648;-70
2021/06/02 00:22:03;;;;;;;3.08;1.30;;;17.70;66.90;;;;;;4964270;28;20037;-69
2021/06/02 00:24:29;;;;;;;5.75;1.67;;;17.60;67.10;;;;;;4966775;28;20039;-70
2021/06/02 00:27:00;;;;;;;3.78;1.10;;;17.50;68.20;;;;;;4967220;28;21608;-70
2021/06/02 00:29:29;;;;;;;4.75;1.70;;;17.50;69.20;;;;;;4965524;28;20043;-69
2021/06/02 00:31:55;;;;;;;4.05;1.75;;;17.40;69.70;;;;;;4967798;28;20039;-69
2021/06/02 00:34:22;;;;;;;2.17;1.40;;;17.30;71.40;;;;;;4967476;28;20046;-70
2021/06/02 00:36:49;;;;;;;4.93;1.70;;;17.30;71.30;;;;;;4967139;28;20138;-69
2021/06/02 00:39:15;;;;;;;8.15;2.40;;;17.30;71.50;;;;;;4967169;28;20050;-70
2021/06/02 00:41:42;;;;;;;4.50;1.55;;;17.30;72.30;;;;;;4967695;28;20449;-70
2021/06/02 00:44:10;;;;;;;5.40;1.70;;;17.20;73.80;;;;;;4965499;28;20682;-69
2021/06/02 00:46:37;;;;;;;5.10;1.90;;;17.10;74.10;;;;;;4967374;28;20097;-70
2021/06/02 00:49:07;;;;;;;4.75;1.42;;;17.10;75.70;;;;;;4967417;28;20031;-69
2021/06/02 00:51:33;;;;;;;9.88;1.90;;;17.10;76.30;;;;;;4964114;28;20122;-69
2021/06/02 00:53:59;;;;;;;4.68;1.63;;;17.10;77.00;;;;;;4963288;28;20159;-69
2021/06/02 00:56:55;;;;;;;3.28;1.65;;;17.10;79.20;;;;;;4967304;28;20531;-69
2021/06/02 00:59:36;;;;;;;5.53;1.63;;;17.10;80.20;;;;;;4963502;28;20042;-70
2021/06/02 01:02:02;;;;;;;4.85;1.80;;;17.00;81.90;;;;;;4963351;28;20041;-69
2021/06/02 01:04:28;;;;;;;6.38;2.28;;;17.00;84.50;;;;;;4967362;28;20030;-70
2021/06/02 01:06:55;;;;;;;4.20;1.90;;;16.90;86.70;;;;;;4966856;28;20454;-68
2021/06/02 01:09:22;;;;;;;3.63;1.80;;;16.80;90.20;;;;;;4965227;28;20384;-69
2021/06/02 01:11:50;;;;;;;8.25;2.55;;;16.90;91.60;;;;;;4967353;28;20050;-69
2021/06/02 01:14:16;;;;;;;6.47;2.53;;;16.80;92.20;;;;;;4966928;28;20050;-69
2021/06/02 01:16:42;;;;;;;8.15;2.40;;;16.70;94.00;;;;;;4982233;28;20039;-69
2021/06/02 01:19:12;;;;;;;7.35;2.00;;;16.70;96.00;;;;;;4981271;28;20034;-70
2021/06/02 01:22:00;;;;;;;5.47;1.88;;;16.70;97.20;;;;;;4967752;28;20031;-70
2021/06/02 01:24:31;;;;;;;4.30;1.98;;;16.70;99.00;;;;;;4966970;28;20070;-70
2021/06/02 01:26:59;;;;;;;5.28;2.00;;;16.70;99.90;;;;;;4967570;28;20038;-69
2021/06/02 01:29:26;;;;;;;4.30;1.83;;;16.60;99.90;;;;;;4962427;28;20035;-69
2021/06/02 01:32:22;;;;;;;9.82;2.60;;;16.60;99.90;;;;;;4965471;28;20105;-69
2021/06/02 01:35:19;;;;;;;2.67;1.90;;;16.60;99.90;;;;;;4966469;28;20050;-70
2021/06/02 01:37:47;;;;;;;5.00;2.55;;;16.60;99.90;;;;;;4954089;28;20042;-69
2021/06/02 01:40:40;;;;;;;6.25;2.97;;;16.60;99.90;;;;;;4968653;28;20049;-69
2021/06/02 01:43:31;;;;;;;12.20;5.18;;;16.60;99.90;;;;;;4966047;28;20042;-69
2021/06/02 01:46:28;;;;;;;10.27;4.68;;;16.50;99.90;;;;;;4970634;28;20043;-70
2021/06/02 01:49:42;;;;;;;13.85;5.55;;;16.50;99.90;;;;;;4969549;28;20084;-70
2021/06/02 01:52:32;;;;;;;23.80;6.38;;;16.40;99.90;;;;;;4966246;28;20677;-70
2021/06/02 01:55:39;;;;;;;10.57;4.28;;;16.30;99.90;;;;;;4966271;28;20047;-70
2021/06/02 01:58:38;;;;;;;9.20;4.30;;;16.30;99.90;;;;;;4966495;28;20130;-69
2021/06/02 02:01:32;;;;;;;10.68;4.40;;;16.20;99.90;;;;;;4967237;28;20038;-69
2021/06/02 02:04:30;;;;;;;8.45;3.70;;;16.20;99.90;;;;;;4981181;28;20031;-69
2021/06/02 02:07:24;;;;;;;7.47;3.65;;;16.20;99.90;;;;;;4980849;28;20487;-69
2021/06/02 02:10:20;;;;;;;7.90;3.95;;;16.20;99.90;;;;;;4969480;28;20035;-69
2021/06/02 02:13:22;;;;;;;5.43;2.97;;;16.20;99.90;;;;;;4969087;28;20039;-69
2021/06/02 02:16:14;;;;;;;7.63;3.50;;;16.30;99.90;;;;;;4968795;28;20495;-70
2021/06/02 02:19:01;;;;;;;6.57;3.53;;;16.20;99.90;;;;;;4967322;28;20121;-70
2021/06/02 02:21:53;;;;;;;9.25;3.22;;;16.20;99.90;;;;;;4968387;28;20211;-69
2021/06/02 02:24:29;;;;;;;5.40;3.30;;;16.20;99.90;;;;;;4969373;28;20039;-68
2021/06/02 02:27:05;;;;;;;8.50;4.07;;;16.20;99.90;;;;;;4965706;28;20369;-70
2021/06/02 02:29:54;;;;;;;7.18;3.83;;;16.10;99.90;;;;;;4966386;28;20129;-68
2021/06/02 02:32:44;;;;;;;9.43;3.60;;;16.20;99.90;;;;;;4969851;28;20062;-69
2021/06/02 02:35:32;;;;;;;9.82;4.63;;;16.30;99.90;;;;;;4963298;28;20045;-70
2021/06/02 02:38:18;;;;;;;10.80;3.78;;;16.20;99.90;;;;;;4964829;28;20487;-70
2021/06/02 02:41:17;;;;;;;10.35;3.83;;;16.20;99.90;;;;;;4970286;28;20439;-69
2021/06/02 02:44:13;;;;;;;8.88;3.88;;;16.20;99.90;;;;;;4967001;28;20035;-70
2021/06/02 02:46:45;;;;;;;10.02;3.25;;;16.20;99.90;;;;;;4965775;28;20050;-70
2021/06/02 02:49:29;;;;;;;6.82;3.67;;;16.20;99.90;;;;;;4968980;28;20398;-70
2021/06/02 02:51:54;;;;;;;9.20;3.72;;;16.20;99.90;;;;;;4961713;28;20035;-69
2021/06/02 02:54:58;;;;;;;11.18;4.18;;;16.20;99.90;;;;;;4968582;28;20027;-69
2021/06/02 02:57:33;;;;;;;7.95;3.95;;;16.30;99.90;;;;;;4969077;28;20043;-71
2021/06/02 03:00:08;;;;;;;7.85;3.58;;;16.40;99.90;;;;;;4965340;28;20472;-71
2021/06/02 03:02:40;;;;;;;10.93;3.78;;;16.40;99.90;;;;;;4969108;28;20038;-69
2021/06/02 03:05:11;;;;;;;8.32;3.42;;;16.40;99.90;;;;;;4967378;28;20465;-69
2021/06/02 03:07:40;;;;;;;7.25;3.45;;;16.40;99.90;;;;;;4969090;28;20442;-70
2021/06/02 03:10:13;;;;;;;7.82;4.18;;;16.40;99.90;;;;;;4967782;28;20047;-70
2021/06/02 03:12:48;;;;;;;6.97;3.38;;;16.40;99.90;;;;;;4969369;28;20563;-69
2021/06/02 03:15:23;;;;;;;7.72;3.53;;;16.40;99.90;;;;;;4967470;28;20046;-70
2021/06/02 03:18:01;;;;;;;8.02;3.47;;;16.40;99.90;;;;;;4968519;28;20031;-70
2021/06/02 03:20:35;;;;;;;13.48;3.50;;;16.30;99.90;;;;;;4964374;28;20043;-70
2021/06/02 03:23:27;;;;;;;9.77;3.38;;;16.30;99.90;;;;;;4968857;28;20498;-69
2021/06/02 03:25:58;;;;;;;10.82;4.25;;;16.30;99.90;;;;;;4966936;28;20042;-69
2021/06/02 03:28:41;;;;;;;;;;;16.30;99.90;;;;;;4965301;28;20049;-70
2021/06/02 03:31:20;;;;;;;9.60;3.42;;;16.40;99.90;;;;;;4966358;28;20346;-70
2021/06/02 03:34:03;;;;;;;10.97;3.57;;;16.40;99.90;;;;;;4968351;28;20042;-70
2021/06/02 03:36:52;;;;;;;8.13;3.25;;;16.40;99.90;;;;;;4962156;28;20053;-69
2021/06/02 03:39:41;;;;;;;7.72;3.80;;;16.50;99.90;;;;;;4967859;28;20475;-69
2021/06/02 03:42:15;;;;;;;5.68;3.33;;;16.50;99.90;;;;;;4966736;28;20549;-70
2021/06/02 03:45:12;;;;;;;7.63;3.25;;;16.40;99.90;;;;;;4966235;28;20066;-71
2021/06/02 03:47:53;;;;;;;7.32;4.00;;;16.40;99.90;;;;;;4966938;28;20138;-70
2021/06/02 03:50:24;;;;;;;8.82;4.15;;;16.40;99.90;;;;;;4955458;28;20452;-70
2021/06/02 03:53:08;;;;;;;11.48;4.45;;;16.50;99.90;;;;;;4968420;28;20038;-71
2021/06/02 03:56:07;;;;;;;6.90;3.58;;;16.40;99.90;;;;;;4965628;28;20050;-69
2021/06/02 03:58:52;;;;;;;9.25;4.00;;;16.30;99.90;;;;;;4964889;28;20093;-70
2021/06/02 04:01:29;;;;;;;18.83;4.32;;;16.40;99.90;;;;;;4968053;28;20041;-69
2021/06/02 04:04:21;;;;;;;8.18;4.03;;;16.30;99.90;;;;;;4982776;28;20491;-69
2021/06/02 04:06:49;;;;;;;9.82;3.83;;;16.30;99.90;;;;;;4966083;28;20035;-69
2021/06/02 04:09:30;;;;;;;7.60;3.28;;;16.30;99.90;;;;;;4967879;28;20471;-69
2021/06/02 04:12:21;;;;;;;6.20;3.97;;;16.30;99.90;;;;;;4964590;28;20213;-70
2021/06/02 04:14:58;;;;;;;7.80;3.78;;;16.40;99.90;;;;;;4967878;28;20035;-69
2021/06/02 04:17:25;;;;;;;9.75;4.07;;;16.30;99.90;;;;;;4964838;28;20027;-69
2021/06/02 04:19:52;;;;;;;6.63;3.45;;;16.30;99.90;;;;;;4967226;28;20027;-70
2021/06/02 04:22:20;;;;;;;10.13;4.47;;;16.30;99.90;;;;;;4963062;28;20035;-69
2021/06/02 04:24:47;;;;;;;12.00;3.80;;;16.30;99.90;;;;;;4967579;28;20133;-71
2021/06/02 04:27:14;;;;;;;10.30;3.90;;;16.30;99.90;;;;;;4964733;28;20043;-70
2021/06/02 04:29:44;;;;;;;10.38;4.38;;;16.30;99.90;;;;;;4966499;28;20522;-70
2021/06/02 04:32:10;;;;;;;8.80;3.77;;;16.30;99.90;;;;;;4966805;28;20387;-69
2021/06/02 04:34:36;;;;;;;7.40;4.25;;;16.40;99.90;;;;;;4967082;28;20298;-69
2021/06/02 04:37:04;;;;;;;10.68;4.55;;;16.30;99.90;;;;;;4965680;28;20050;-69
2021/06/02 04:39:31;;;;;;;8.60;3.88;;;16.30;99.90;;;;;;4981563;28;20047;-69
2021/06/02 04:41:59;;;;;;;8.65;4.25;;;16.30;99.90;;;;;;4966771;28;20035;-70
2021/06/02 04:44:27;;;;;;;8.93;3.90;;;16.40;99.90;;;;;;4965477;28;20486;-71
2021/06/02 04:46:53;;;;;;;7.03;3.72;;;16.30;99.90;;;;;;4966818;28;20030;-70
2021/06/02 04:49:19;;;;;;;8.15;4.22;;;16.40;99.90;;;;;;4967056;28;20061;-69
2021/06/02 04:52:00;;;;;;;11.15;4.03;;;16.40;99.90;;;;;;4967666;28;20043;-70
2021/06/02 04:54:50;;;;;;;11.95;4.97;;;16.40;99.90;;;;;;4966510;28;20116;-71
2021/06/02 04:57:46;;;;;;;9.48;3.92;;;16.40;99.90;;;;;;4966846;28;20043;-69
2021/06/02 05:00:31;;;;;;;9.32;3.97;;;16.50;99.90;;;;;;4980925;28;20043;-70
2021/06/02 05:03:22;;;;;;;10.50;4.47;;;16.60;99.90;;;;;;4966663;28;20126;-70
2021/06/02 05:06:29;;;;;;;8.50;4.63;;;16.70;99.90;;;;;;4965532;28;20035;-71
2021/06/02 05:09:42;;;;;;;9.90;4.07;;;16.80;99.90;;;;;;4965936;28;20031;-69
2021/06/02 05:12:13;;;;;;;7.22;3.75;;;16.80;99.90;;;;;;4969189;28;20279;-70
2021/06/02 05:15:16;;;;;;;13.77;4.35;;;16.90;99.90;;;;;;4971071;28;20253;-69
2021/06/02 05:18:03;;;;;;;8.25;4.22;;;16.90;99.90;;;;;;4979277;28;20506;-69
2021/06/02 05:23:53;;;;;;;7.93;4.28;;;17.00;99.90;;;;;;4967117;28;20868;-70
2021/06/02 05:26:42;;;;;;;13.57;4.38;;;17.00;99.90;;;;;;4962978;28;20039;-69
2021/06/02 05:29:45;;;;;;;8.68;4.25;;;17.10;99.90;;;;;;4970094;28;20146;-70
2021/06/02 05:32:29;;;;;;;8.45;4.05;;;17.40;99.90;;;;;;4970719;28;20639;-69
2021/06/02 05:35:19;;;;;;;8.20;4.20;;;17.70;99.90;;;;;;4963006;28;20876;-70
2021/06/02 05:38:06;;;;;;;13.95;4.28;;;18.00;99.90;;;;;;4952473;28;20097;-69
2021/06/02 05:41:09;;;;;;;6.85;4.15;;;18.50;99.90;;;;;;4966910;28;20140;-71
2021/06/02 05:43:53;;;;;;;9.23;4.53;;;18.80;99.90;;;;;;4970497;28;20042;-72
2021/06/02 05:47:10;;;;;;;9.48;4.50;;;19.10;99.90;;;;;;4971871;28;20122;-70
2021/06/02 05:49:55;;;;;;;10.98;4.18;;;19.40;99.90;;;;;;4970651;28;20037;-69
2021/06/02 05:52:54;;;;;;;9.00;3.83;;;19.70;99.90;;;;;;4966942;28;20046;-71
2021/06/02 05:55:39;;;;;;;9.82;4.30;;;19.90;99.90;;;;;;4971507;28;20043;-70
2021/06/02 05:58:41;;;;;;;7.38;3.78;;;20.10;99.90;;;;;;4966911;28;20054;-69
2021/06/02 06:01:31;;;;;;;6.75;3.97;;;20.40;99.90;;;;;;4988682;28;20483;-69
2021/06/02 06:04:16;;;;;;;5.95;3.47;;;20.70;99.90;;;;;;4966846;28;20895;-69
2021/06/02 06:07:00;;;;;;;8.55;3.63;;;21.10;99.90;;;;;;4975894;28;20113;-72
2021/06/02 06:10:03;;;;;;;9.60;4.35;;;21.60;99.90;;;;;;4970742;28;20515;-69
2021/06/02 06:12:38;;;;;;;10.93;3.83;;;21.90;99.90;;;;;;4967645;28;20689;-70
2021/06/02 06:15:37;;;;;;;10.45;4.13;;;22.70;99.20;;;;;;4980057;28;20415;-71
2021/06/02 06:18:08;;;;;;;6.72;3.97;;;23.80;97.40;;;;;;4976208;28;20046;-70
2021/06/02 06:20:49;;;;;;;10.90;5.35;;;24.50;95.30;;;;;;4977017;28;20145;-72
2021/06/02 06:23:42;;;;;;;8.90;4.80;;;25.70;92.10;;;;;;4968218;28;20516;-70
2021/06/02 06:26:25;;;;;;;14.40;4.03;;;26.20;86.00;;;;;;4970188;28;20034;-70
2021/06/02 06:29:14;;;;;;;11.98;4.80;;;27.80;78.10;;;;;;4971686;28;20058;-70
2021/06/02 06:31:47;;;;;;;19.88;6.40;;;28.90;70.30;;;;;;4968258;28;20066;-70
2021/06/02 06:34:17;;;;;;;10.43;5.53;;;29.30;66.70;;;;;;4971246;28;20047;-71
2021/06/02 06:36:45;;;;;;;8.35;5.43;;;30.30;61.80;;;;;;4971256;28;20110;-70
2021/06/02 06:39:32;;;;;;;8.88;6.15;;;30.80;58.00;;;;;;4968961;28;20054;-72
2021/06/02 06:42:00;;;;;;;7.22;4.97;;;30.90;56.20;;;;;;4969283;28;20478;-71
2021/06/02 06:44:27;;;;;;;11.63;6.80;;;31.70;53.90;;;;;;4967038;28;20045;-72
2021/06/02 06:46:56;;;;;;;8.68;6.00;;;32.10;53.30;;;;;;4969251;28;20035;-73
2021/06/02 06:49:25;;;;;;;10.80;5.30;;;32.40;51.70;;;;;;4969770;28;20482;-71
2021/06/02 06:51:52;;;;;;;6.45;5.18;;;32.70;49.30;;;;;;4970007;28;20143;-73
2021/06/02 06:54:20;;;;;;;6.72;4.80;;;33.10;48.50;;;;;;4966064;28;20065;-71
2021/06/02 06:56:47;;;;;;;7.25;5.13;;;33.80;47.30;;;;;;4964262;28;20045;-72
2021/06/02 06:59:15;;;;;;;9.95;5.20;;;34.00;46.30;;;;;;4969011;28;20049;-69
2021/06/02 07:01:41;;;;;;;11.43;5.53;;;34.40;44.60;;;;;;4970438;28;20056;-71
2021/06/02 07:04:08;;;;;;;10.75;6.13;;;34.50;44.30;;;;;;4964915;28;20546;-72
2021/06/02 07:06:37;;;;;;;19.55;5.05;;;33.90;43.80;;;;;;4971123;28;20034;-69
2021/06/02 07:09:04;;;;;;;14.10;6.25;;;33.80;45.20;;;;;;4966625;28;20043;-71
2021/06/02 07:11:36;;;;;;;7.68;5.35;;;34.00;45.30;;;;;;4965648;28;20081;-73
2021/06/02 07:14:02;;;;;;;14.77;6.07;;;33.80;44.10;;;;;;4967607;28;20122;-72
2021/06/02 07:16:29;;;;;;;9.02;5.70;;;34.00;43.90;;;;;;4962953;28;20471;-72
2021/06/02 07:18:57;;;;;;;7.72;5.55;;;34.30;42.80;;;;;;4966383;28;20133;-71
2021/06/02 07:21:23;;;;;;;11.23;5.60;;;35.00;41.70;;;;;;4964600;28;20034;-69
2021/06/02 07:23:49;;;;;;;8.32;5.70;;;34.90;41.70;;;;;;4968556;28;20363;-71
2021/06/02 07:26:15;;;;;;;9.27;5.10;;;34.60;43.80;;;;;;4968603;28;20845;-72
2021/06/02 07:28:41;;;;;;;13.13;6.05;;;35.00;40.90;;;;;;4968274;28;20035;-74
2021/06/02 07:31:08;;;;;;;7.63;5.65;;;34.90;40.60;;;;;;4968608;28;20082;-71
2021/06/02 07:33:35;;;;;;;9.05;5.35;;;34.90;40.50;;;;;;4970083;28;20446;-70
2021/06/02 07:36:01;;;;;;;6.75;4.97;;;34.60;42.40;;;;;;4964386;28;20200;-73
2021/06/02 07:38:28;;;;;;;11.95;5.78;;;34.60;41.40;;;;;;4961066;28;20558;-69
2021/06/02 07:40:54;;;;;;;7.53;5.20;;;35.20;40.50;;;;;;4970269;28;20090;-72
2021/06/02 07:43:19;;;;;;;9.63;5.65;;;34.70;43.50;;;;;;4964114;28;20372;-71
2021/06/02 07:45:45;;;;;;;7.53;5.95;;;35.30;41.20;;;;;;4964373;28;20055;-68
2021/06/02 07:48:10;;;;;;;8.77;5.50;;;35.60;41.50;;;;;;4960470;28;20047;-71
2021/06/02 07:50:37;;;;;;;8.35;5.50;;;35.20;41.70;;;;;;4967608;28;20110;-71
2021/06/02 07:53:02;;;;;;;7.30;5.75;;;35.70;41.30;;;;;;4965748;28;20046;-71
2021/06/02 07:55:28;;;;;;;7.60;5.20;;;35.80;40.90;;;;;;4964837;28;20060;-73
2021/06/02 07:57:54;;;;;;;9.68;5.60;;;36.60;39.80;;;;;;4963194;28;20986;-71
2021/06/02 08:00:20;;;;;;;9.05;5.75;;;36.00;40.30;;;;;;4965258;28;20038;-71
2021/06/02 08:02:46;;;;;;;7.43;5.63;;;36.30;38.90;;;;;;4969015;28;20031;-72
2021/06/02 08:05:14;;;;;;;9.27;5.90;;;36.30;38.80;;;;;;4964734;28;20053;-71
2021/06/02 08:07:41;;;;;;;;;;;36.30;39.40;;;;;;4964088;28;20034;-72
2021/06/02 08:10:07;;;;;;;11.25;5.63;;;36.00;41.30;;;;;;4965831;28;20150;-73
2021/06/02 08:12:32;;;;;;;9.18;5.32;;;36.90;39.00;;;;;;4967525;28;20523;-70
2021/06/02 08:14:58;;;;;;;7.10;6.40;;;36.80;38.70;;;;;;4966128;28;20043;-72
2021/06/02 08:17:23;;;;;;;10.70;5.80;;;36.40;40.30;;;;;;4963871;28;20133;-73
2021/06/02 08:19:49;;;;;;;8.00;5.85;;;36.20;38.80;;;;;;4967208;28;20373;-72
2021/06/02 08:22:14;;;;;;;10.90;5.78;;;35.00;38.90;;;;;;4965887;28;20054;-71
2021/06/02 08:24:40;;;;;;;11.73;5.80;;;34.20;39.90;;;;;;4963593;28;20042;-73
2021/06/02 08:27:10;;;;;;;6.95;5.05;;;33.90;40.60;;;;;;4966578;28;20038;-71
2021/06/02 08:29:36;;;;;;;7.85;5.63;;;33.90;40.50;;;;;;4966987;28;20073;-71
2021/06/02 08:32:02;;;;;;;10.75;5.63;;;34.10;40.60;;;;;;4967446;28;20088;-71
2021/06/02 08:34:28;;;;;;;10.38;5.40;;;33.70;41.40;;;;;;4981208;28;20047;-71
2021/06/02 08:36:54;;;;;;;12.38;5.82;;;34.30;40.00;;;;;;4973561;28;20031;-71
2021/06/02 08:39:19;;;;;;;12.63;4.38;;;34.40;39.90;;;;;;4970918;28;20035;-71
2021/06/02 08:41:45;;;;;;;6.40;4.47;;;33.90;42.40;;;;;;4966859;28;20478;-71
2021/06/02 08:44:11;;;;;;;8.52;4.45;;;34.60;41.70;;;;;;4966033;28;20031;-71
2021/06/02 08:46:37;;;;;;;8.02;4.88;;;33.90;41.60;;;;;;4969358;28;20045;-71
2021/06/02 08:49:04;;;;;;;12.40;4.68;;;34.20;40.10;;;;;;4987517;28;20034;-70
2021/06/02 08:51:33;;;;;;;7.18;4.18;;;34.50;38.90;;;;;;4974021;28;20059;-71
2021/06/02 08:53:58;;;;;;;6.50;3.50;;;33.80;42.30;;;;;;4972834;28;20517;-73
2021/06/02 08:56:24;;;;;;;7.07;3.63;;;33.70;40.80;;;;;;4974087;28;20030;-71
2021/06/02 08:58:50;;;;;;;5.38;3.92;;;33.30;40.20;;;;;;4969838;28;20655;-70
2021/06/02 09:01:16;;;;;;;4.80;2.83;;;32.90;42.60;;;;;;4974536;28;20060;-71
2021/06/02 09:03:41;;;;;;;9.57;2.97;;;32.60;40.90;;;;;;4974718;28;20166;-72
2021/06/02 09:06:10;;;;;;;4.32;2.45;;;32.80;38.70;;;;;;4966128;28;20069;-71
2021/06/02 09:08:39;;;;;;;3.60;2.60;;;32.60;39.20;;;;;;4966281;28;20082;-70
2021/06/02 09:11:12;;;;;;;6.18;2.45;;;32.20;39.90;;;;;;4965733;28;20384;-71
2021/06/02 09:13:37;;;;;;;5.00;2.00;;;32.00;41.10;;;;;;4968391;28;20030;-70
2021/06/02 09:16:23;;;;;;;3.05;1.90;;;31.60;41.20;;;;;;4977175;28;20050;-71
2021/06/02 09:18:58;;;;;;;4.65;2.83;;;31.00;41.70;;;;;;4968543;28;20050;-71
2021/06/02 09:21:28;;;;;;;2.65;1.55;;;31.00;43.60;;;;;;4968845;28;20445;-70
2021/06/02 09:23:54;;;;;;;6.75;1.75;;;30.60;43.30;;;;;;4968390;28;20850;-70
2021/06/02 09:26:27;;;;;;;3.40;1.30;;;30.70;41.60;;;;;;4966755;28;20049;-69
2021/06/02 09:29:09;;;;;;;6.05;1.58;;;30.60;40.80;;;;;;4958876;28;20079;-70
2021/06/02 09:31:45;;;;;;;4.30;1.95;;;30.50;42.20;;;;;;4964200;28;20506;-70
2021/06/02 09:34:21;;;;;;;5.50;1.77;;;30.10;43.70;;;;;;4965917;28;20042;-71
2021/06/02 09:36:50;;;;;;;17.50;3.25;;;30.10;46.00;;;;;;4972194;28;20529;-71
2021/06/02 09:39:20;;;;;;;9.98;1.50;;;30.10;42.50;;;;;;4967051;28;20128;-71
2021/06/02 09:41:51;;;;;;;;;;;29.80;42.50;;;;;;4970840;28;20055;-71
2021/06/02 09:44:20;;;;;;;6.88;2.33;;;29.90;43.60;;;;;;4968845;28;19914;-71
2021/06/02 09:47:05;;;;;;;3.40;1.52;;;29.90;44.20;;;;;;4967301;28;20046;-71
2021/06/02 09:49:51;;;;;;;2.70;1.17;;;30.10;40.70;;;;;;4968837;28;20039;-71
2021/06/02 09:52:18;;;;;;;2.58;1.13;;;30.20;41.50;;;;;;4964393;28;20498;-71
2021/06/02 09:54:44;;;;;;;4.32;1.45;;;30.00;41.50;;;;;;4964823;28;20035;-71
2021/06/02 09:57:17;;;;;;;3.25;1.73;;;29.80;42.20;;;;;;4962678;28;20035;-71
2021/06/02 09:59:57;;;;;;;8.52;1.98;;;30.00;42.80;;;;;;4968408;28;20047;-71
2021/06/02 10:02:24;;;;;;;4.13;1.25;;;29.90;42.40;;;;;;4974535;28;20095;-71
2021/06/02 10:05:10;;;;;;;4.28;2.88;;;30.00;44.20;;;;;;4971774;28;20038;-71
2021/06/02 10:07:44;;;;;;;9.55;1.92;;;30.00;43.00;;;;;;4965132;28;20465;-71
2021/06/02 10:10:14;;;;;;;4.47;1.50;;;29.90;44.00;;;;;;4979075;28;20089;-71
2021/06/02 10:13:01;;;;;;;6.97;2.00;;;29.90;44.80;;;;;;4971292;28;20443;-71
2021/06/02 10:15:40;;;;;;;3.20;1.50;;;30.00;42.70;;;;;;4963699;28;20039;-71
2021/06/02 10:18:26;;;;;;;3.85;1.08;;;29.90;43.70;;;;;;4965518;28;20320;-71
2021/06/02 10:21:08;;;;;;;4.32;1.60;;;29.90;41.90;;;;;;4969546;28;20043;-71
2021/06/02 10:23:38;;;;;;;2.58;0.93;;;29.80;43.50;;;;;;4972035;28;20039;-70
2021/06/02 10:26:05;;;;;;;4.22;1.10;;;29.80;41.70;;;;;;4970412;28;20034;-71
2021/06/02 10:28:31;;;;;;;2.05;1.08;;;29.50;41.90;;;;;;4964096;28;20125;-72
2021/06/02 10:30:57;;;;;;;2.65;1.55;;;29.50;41.00;;;;;;4967933;28;20035;-72
2021/06/02 10:33:23;;;;;;;6.60;1.27;;;29.50;41.20;;;;;;4973472;28;20039;-71
2021/06/02 10:35:49;;;;;;;1.77;0.93;;;29.40;41.90;;;;;;4961567;28;20039;-71
2021/06/02 10:38:17;;;;;;;3.88;1.15;;;29.40;41.00;;;;;;4962517;28;20101;-71
2021/06/02 10:40:44;;;;;;;6.32;1.23;;;29.50;40.20;;;;;;4963238;28;20511;-71
2021/06/02 10:43:15;;;;;;;3.25;0.80;;;29.40;41.90;;;;;;4962536;28;20112;-71
2021/06/02 10:45:56;;;;;;;3.05;1.10;;;29.40;41.20;;;;;;4968702;28;20380;-72
2021/06/02 10:48:42;;;;;;;4.40;0.90;;;29.40;42.40;;;;;;4981671;28;20043;-71
2021/06/02 10:51:23;;;;;;;6.72;1.05;;;29.50;41.60;;;;;;4968411;28;20085;-71
2021/06/02 10:54:06;;;;;;;2.80;1.00;;;29.60;40.60;;;;;;4966965;28;20794;-71
2021/06/02 10:56:32;;;;;;;1.42;0.60;;;29.50;39.40;;;;;;4968072;28;20095;-71
2021/06/02 10:58:58;;;;;;;2.10;0.70;;;29.50;40.60;;;;;;4966504;28;20475;-71
2021/06/02 11:01:24;;;;;;;1.88;0.70;;;29.50;42.30;;;;;;4964384;28;20381;-71
2021/06/02 11:04:11;;;;;;;2.42;1.13;;;29.60;39.90;;;;;;4967775;28;20082;-72
2021/06/02 11:06:39;;;;;;;1.73;0.70;;;29.60;40.10;;;;;;4959889;28;20147;-70
2021/06/02 11:09:09;;;;;;;3.33;1.20;;;29.60;40.60;;;;;;4962306;28;20761;-70
2021/06/02 11:11:40;;;;;;;2.45;1.23;;;29.50;40.90;;;;;;4969117;28;20038;-70
2021/06/02 11:14:15;;;;;;;18.10;2.30;;;29.50;41.20;;;;;;4965143;28;20046;-70
2021/06/02 11:16:43;;;;;;;7.35;1.50;;;29.40;41.70;;;;;;4962892;28;20112;-71
2021/06/02 11:19:42;;;;;;;1.65;0.68;;;29.40;41.30;;;;;;4960722;28;20098;-71
2021/06/02 11:22:13;;;;;;;5.18;1.05;;;29.30;39.40;;;;;;4963608;28;20100;-71
2021/06/02 11:24:41;;;;;;;2.25;0.70;;;29.40;38.80;;;;;;4966059;28;20133;-71
2021/06/02 11:27:10;;;;;;;3.92;0.90;;;29.40;39.30;;;;;;4966274;28;20842;-71
2021/06/02 11:29:48;;;;;;;5.78;0.85;;;29.30;39.50;;;;;;4964095;28;20039;-71
2021/06/02 11:32:15;;;;;;;1.92;0.88;;;29.30;39.40;;;;;;4965482;28;20085;-71
2021/06/02 11:34:41;;;;;;;1.70;0.85;;;29.10;39.40;;;;;;4967100;28;20095;-71
2021/06/02 11:37:13;;;;;;;2.65;0.82;;;29.10;39.30;;;;;;4964430;28;20397;-71
2021/06/02 11:39:40;;;;;;;27.15;1.52;;;28.90;40.20;;;;;;4961023;28;20420;-71
2021/06/02 11:42:07;;;;;;;10.32;1.13;;;28.90;40.70;;;;;;4963351;28;20435;-71
2021/06/02 11:44:35;;;;;;;1.08;0.63;;;28.90;43.30;;;;;;4966468;28;20310;-71
2021/06/02 11:47:02;;;;;;;3.47;0.90;;;29.10;41.00;;;;;;4965729;28;20062;-71
2021/06/02 11:49:27;;;;;;;6.63;1.35;;;29.00;40.40;;;;;;4964924;28;20035;-71
2021/06/02 11:51:57;;;;;;;2.53;0.90;;;28.90;40.30;;;;;;4968125;28;20455;-71
2021/06/02 11:54:24;;;;;;;;;;;28.70;41.40;;;;;;4969183;28;20038;-73
2021/06/02 11:56:49;;;;;;;3.80;1.08;;;28.80;42.10;;;;;;4967281;28;19945;-70
2021/06/02 11:59:15;;;;;;;5.85;0.88;;;28.80;41.50;;;;;;4960190;28;20047;-70
2021/06/02 12:01:40;;;;;;;3.80;0.82;;;28.80;40.50;;;;;;4968619;28;20519;-71
2021/06/02 12:04:06;;;;;;;8.20;1.80;;;28.80;41.10;;;;;;4965698;28;20453;-71
2021/06/02 12:06:34;;;;;;;3.10;1.27;;;28.90;43.10;;;;;;4962953;28;20042;-71
2021/06/02 12:09:02;;;;;;;2.40;0.63;;;29.00;40.70;;;;;;4963777;28;20034;-71
2021/06/02 12:11:27;;;;;;;8.40;0.77;;;29.10;40.90;;;;;;4964480;28;20514;-70
2021/06/02 12:13:53;;;;;;;6.90;1.13;;;29.10;41.00;;;;;;4964588;28;20054;-70
2021/06/02 12:16:25;;;;;;;4.10;1.70;;;29.00;41.40;;;;;;4968983;28;20039;-71
2021/06/02 12:18:52;;;;;;;2.05;1.00;;;28.80;40.90;;;;;;4962960;28;20042;-70
2021/06/02 12:21:27;;;;;;;5.32;1.08;;;28.80;41.80;;;;;;4966746;28;20117;-70
2021/06/02 12:23:59;;;;;;;7.80;1.20;;;28.90;42.30;;;;;;4963807;28;20113;-70
2021/06/02 12:26:40;;;;;;;3.45;1.05;;;28.80;42.00;;;;;;4960344;28;20054;-70
2021/06/02 12:29:09;;;;;;;4.85;1.30;;;28.90;41.40;;;;;;4961606;28;20663;-71
2021/06/02 12:31:39;;;;;;;10.07;1.38;;;28.80;41.60;;;;;;4964076;28;20055;-70
2021/06/02 12:34:10;;;;;;;5.07;1.17;;;28.80;42.40;;;;;;4964198;28;20045;-70
2021/06/02 12:36:41;;;;;;;3.53;1.00;;;28.80;42.70;;;;;;4965562;28;20035;-70
2021/06/02 12:39:10;;;;;;;3.25;0.80;;;28.70;41.20;;;;;;4959582;28;20031;-70
2021/06/02 12:41:38;;;;;;;2.08;0.88;;;28.60;41.00;;;;;;4962458;28;20035;-71
2021/06/02 12:44:05;;;;;;;1.77;0.65;;;28.50;41.80;;;;;;4964616;28;20085;-70
2021/06/02 12:46:31;;;;;;;2.30;1.35;;;28.60;42.50;;;;;;4966235;28;20696;-70
2021/06/02 12:48:57;;;;;;;2.03;1.00;;;28.50;41.70;;;;;;4966348;28;20046;-71
2021/06/02 12:51:24;;;;;;;1.95;1.00;;;28.40;42.70;;;;;;4967328;28;20039;-70
2021/06/02 12:53:51;;;;;;;2.80;1.10;;;28.40;42.30;;;;;;4965483;28;20491;-70
2021/06/02 12:56:19;;;;;;;2.80;1.30;;;28.40;43.80;;;;;;4967895;28;20035;-71
2021/06/02 12:58:54;;;;;;;2.28;0.85;;;28.40;43.30;;;;;;4960888;28;20047;-70
2021/06/02 13:01:22;;;;;;;3.13;1.15;;;28.40;43.00;;;;;;4960784;28;20046;-70
2021/06/02 13:03:53;;;;;;;2.47;1.00;;;28.40;42.40;;;;;;4961729;28;20038;-70
2021/06/02 13:06:24;;;;;;;2.92;1.27;;;28.30;43.40;;;;;;4967056;28;20026;-70
2021/06/02 13:08:50;;;;;;;7.97;1.17;;;28.30;43.00;;;;;;4959135;28;20039;-70
2021/06/02 13:11:22;;;;;;;3.10;1.33;;;28.30;44.40;;;;;;4964224;28;20046;-70
2021/06/02 13:13:51;;;;;;;3.78;0.88;;;28.30;42.90;;;;;;4964922;28;20327;-70
2021/06/02 13:16:17;;;;;;;7.88;0.90;;;28.30;42.60;;;;;;4965344;28;20038;-70
2021/06/02 13:18:55;;;;;;;4.90;0.93;;;28.30;42.70;;;;;;4961548;28;20034;-70
2021/06/02 13:21:27;;;;;;;3.22;0.73;;;28.40;43.10;;;;;;4964166;28;20409;-70
2021/06/02 13:23:54;;;;;;;2.83;0.82;;;28.20;41.50;;;;;;4963484;28;20062;-70
2021/06/02 13:26:26;;;;;;;1.30;0.73;;;28.20;41.60;;;;;;4965217;28;20046;-70
2021/06/02 13:28:54;;;;;;;2.80;1.02;;;28.20;42.40;;;;;;4963886;28;20501;-70